Time;durP1;ratioP1;P1;durP2;ratioP2;P2;SDS_P1;SDS_P2;PMS_P1;PMS_P2;Temp;Humidity;BMP_temperature;BMP_pressure;BME280_temperature;BME280_humidity;BME280_pressure;Samples;Min_cycle;Max_cycle;Signal;HPM_P1;HPM_P2
2021/06/15 00:00:01;;;;;;;25.48;13.68;;;;;;;17.57;74.69;102244.44;5051395;28;20060;-74
2021/06/15 00:02:30;;;;;;;23.73;13.65;;;;;;;17.57;74.63;102242.63;5052429;28;20057;-75
2021/06/15 00:04:57;;;;;;;24.17;13.45;;;;;;;17.50;74.58;102244.69;5053602;28;20072;-74
2021/06/15 00:07:25;;;;;;;22.63;13.13;;;;;;;17.44;75.17;102250.31;5053807;28;20052;-74
2021/06/15 00:09:53;;;;;;;25.10;13.73;;;;;;;17.38;75.50;102242.44;5066962;28;20117;-73
2021/06/15 00:12:21;;;;;;;26.73;13.82;;;;;;;17.36;75.39;102245.19;5050972;28;20048;-74
2021/06/15 00:14:49;;;;;;;21.52;12.88;;;;;;;17.30;75.83;102239.19;5050894;28;20171;-75
2021/06/15 00:17:18;;;;;;;22.65;13.45;;;;;;;17.22;76.07;102250.25;5055779;28;20059;-73
2021/06/15 00:19:46;;;;;;;23.90;12.18;;;;;;;17.19;76.34;102253.06;5049822;28;20075;-73
2021/06/15 00:22:14;;;;;;;22.30;12.90;;;;;;;17.21;76.41;102253.00;5053034;28;20106;-73
2021/06/15 00:24:41;;;;;;;20.83;12.70;;;;;;;17.23;76.52;102252.03;5063867;28;20191;-73
2021/06/15 00:27:09;;;;;;;21.90;11.57;;;;;;;17.22;77.36;102249.38;5054811;28;20092;-74
2021/06/15 00:29:37;;;;;;;21.15;11.80;;;;;;;17.28;76.30;102244.63;5050380;28;20086;-74
2021/06/15 00:32:06;;;;;;;19.73;12.18;;;;;;;17.28;76.62;102252.72;5054144;28;20060;-73
2021/06/15 00:34:35;;;;;;;22.42;11.55;;;;;;;17.23;76.61;102257.41;5052937;28;20061;-73
2021/06/15 00:37:03;;;;;;;18.58;10.95;;;;;;;17.26;76.57;102259.09;5053654;28;20061;-73
2021/06/15 00:39:31;;;;;;;21.33;11.13;;;;;;;17.32;76.22;102256.19;5054425;28;20068;-74
2021/06/15 00:41:59;;;;;;;17.58;10.07;;;;;;;17.30;76.37;102256.25;5049844;28;20072;-73
2021/06/15 00:44:27;;;;;;;18.75;10.73;;;;;;;17.34;76.67;102249.78;5051150;28;20125;-74
2021/06/15 00:46:55;;;;;;;20.90;11.80;;;;;;;17.31;76.73;102251.72;5049175;28;20455;-73
2021/06/15 00:49:25;;;;;;;19.63;11.57;;;;;;;17.29;76.36;102256.28;5047652;28;20068;-73
2021/06/15 00:51:55;;;;;;;19.95;10.43;;;;;;;17.32;76.23;102250.78;5052133;28;20052;-74
2021/06/15 00:54:23;;;;;;;17.38;10.30;;;;;;;17.36;76.56;102253.28;5052977;28;20053;-73
2021/06/15 00:56:51;;;;;;;22.85;11.75;;;;;;;17.34;76.99;102257.00;5055361;28;20056;-74
2021/06/15 00:59:19;;;;;;;17.90;10.02;;;;;;;17.36;76.79;102252.41;5053531;28;20075;-73
2021/06/15 01:01:48;;;;;;;20.85;11.23;;;;;;;17.39;76.77;102251.44;5052205;28;20049;-74
2021/06/15 01:04:17;;;;;;;18.13;11.18;;;;;;;17.44;76.57;102250.31;5051983;28;20068;-74
2021/06/15 01:06:51;;;;;;;16.20;10.73;;;;;;;17.44;76.73;102250.31;5049894;28;20057;-73
2021/06/15 01:09:29;;;;;;;22.48;10.80;;;;;;;17.40;76.69;102255.88;5054159;28;20370;-74
2021/06/15 01:12:07;;;;;;;23.75;11.60;;;;;;;17.41;76.40;102254.94;5054705;28;20057;-73
2021/06/15 01:14:49;;;;;;;23.10;11.38;;;;;;;17.38;76.70;102258.63;5051574;28;20458;-74
2021/06/15 01:17:21;;;;;;;17.67;10.70;;;;;;;17.34;76.37;102271.34;5052798;28;20068;-74
2021/06/15 01:20:10;;;;;;;20.67;10.93;;;;;;;17.31;76.65;102265.19;5053763;28;20168;-75
2021/06/15 01:23:05;;;;;;;18.65;10.10;;;;;;;17.18;77.38;102276.47;5054759;28;20540;-74
2021/06/15 01:25:47;;;;;;;25.02;11.52;;;;;;;17.12;77.43;102278.50;5053853;28;20563;-74
2021/06/15 01:28:20;;;;;;;22.25;10.93;;;;;;;17.15;77.41;102278.41;5052375;28;20048;-74
2021/06/15 01:30:56;;;;;;;22.80;11.32;;;;;;;17.17;76.97;102271.13;5052577;28;20510;-74
2021/06/15 01:33:26;;;;;;;18.98;10.68;;;;;;;17.22;77.13;102274.53;5049548;28;20082;-72
2021/06/15 01:35:55;;;;;;;21.13;10.45;;;;;;;17.19;77.43;102277.34;5053598;28;20535;-72
2021/06/15 01:38:29;;;;;;;18.23;10.32;;;;;;;17.06;77.93;102282.31;5052447;28;20470;-73
2021/06/15 01:41:03;;;;;;;19.17;9.77;;;;;;;17.22;77.08;102276.34;5055332;28;20533;-73
2021/06/15 01:43:36;;;;;;;21.65;11.73;;;;;;;17.14;77.36;102276.63;5053407;28;20075;-72
2021/06/15 01:46:07;;;;;;;18.03;10.17;;;;;;;17.15;77.39;102283.78;5053501;28;20071;-73
2021/06/15 01:48:41;;;;;;;23.17;9.85;;;;;;;17.15;77.22;102286.47;5050896;28;20412;-72
2021/06/15 01:51:11;;;;;;;18.92;10.20;;;;;;;17.13;77.48;102285.66;5051054;28;21067;-72
2021/06/15 01:53:45;;;;;;;19.23;9.77;;;;;;;17.12;77.30;102283.91;5050293;28;20060;-72
2021/06/15 01:56:16;;;;;;;18.20;9.77;;;;;;;17.12;77.19;102284.78;5050330;28;20063;-72
2021/06/15 01:58:47;;;;;;;16.73;8.73;;;;;;;17.19;76.87;102277.34;5049149;28;20071;-72
2021/06/15 02:01:18;;;;;;;17.98;8.88;;;;;;;17.22;76.62;102281.75;5051526;28;20072;-72
2021/06/15 02:03:47;;;;;;;20.05;9.52;;;;;;;17.26;76.29;102278.00;5054074;28;20056;-71
2021/06/15 02:06:19;;;;;;;19.75;8.75;;;;;;;17.17;76.47;102280.09;5068089;28;20644;-72
2021/06/15 02:08:49;;;;;;;22.52;10.18;;;;;;;17.11;76.63;102277.63;5053148;28;20064;-73
2021/06/15 02:11:17;;;;;;;18.92;8.88;;;;;;;17.13;76.46;102281.16;5053695;28;20643;-72
2021/06/15 02:13:47;;;;;;;14.95;7.95;;;;;;;17.07;76.70;102278.66;5053129;28;20064;-72
2021/06/15 02:16:16;;;;;;;15.68;8.05;;;;;;;17.11;76.14;102282.13;5050347;28;20072;-73
2021/06/15 02:18:51;;;;;;;15.48;8.02;;;;;;;17.14;75.89;102282.88;5053466;28;20150;-73
2021/06/15 02:21:21;;;;;;;17.17;8.02;;;;;;;17.14;75.93;102274.78;5050669;28;20109;-72
2021/06/15 02:23:55;;;;;;;17.63;7.85;;;;;;;17.15;75.68;102286.47;5055469;28;20057;-72
2021/06/15 02:26:26;;;;;;;13.02;7.93;;;;;;;17.08;75.75;102279.56;5047976;28;20091;-72
2021/06/15 02:28:55;;;;;;;14.43;7.60;;;;;;;17.16;75.82;102277.44;5054203;28;20075;-71
2021/06/15 02:31:29;;;;;;;14.13;7.35;;;;;;;17.17;75.48;102280.09;5046498;28;20063;-72
2021/06/15 02:34:02;;;;;;;15.15;7.50;;;;;;;17.16;75.35;102286.44;5055445;28;20083;-72
2021/06/15 02:36:33;;;;;;;16.52;7.72;;;;;;;17.05;75.98;102287.75;5048577;28;20060;-72
2021/06/15 02:39:06;;;;;;;16.50;6.93;;;;;;;16.96;76.29;102291.69;5052524;28;20060;-71
2021/06/15 02:41:37;;;;;;;17.15;7.75;;;;;;;17.01;75.64;102294.19;5048208;28;20060;-72
2021/06/15 02:44:08;;;;;;;13.43;7.30;;;;;;;17.01;76.00;102281.59;5058157;28;20071;-73
2021/06/15 02:46:40;;;;;;;25.05;8.85;;;;;;;17.03;76.08;102285.13;5055328;28;20071;-73
2021/06/15 02:49:13;;;;;;;14.63;6.95;;;;;;;17.04;75.86;102278.78;5060831;28;20064;-72
2021/06/15 02:51:48;;;;;;;15.27;7.65;;;;;;;17.07;75.59;102275.09;5049309;28;20762;-74
2021/06/15 02:54:21;;;;;;;12.15;6.90;;;;;;;17.07;75.59;102275.09;5057977;28;20067;-73
2021/06/15 02:56:52;;;;;;;12.00;7.25;;;;;;;17.02;75.26;102266.28;5051880;28;20052;-72
2021/06/15 02:59:22;;;;;;;13.45;6.35;;;;;;;17.01;75.54;102268.13;5054438;28;20060;-72
2021/06/15 03:01:51;;;;;;;11.57;6.35;;;;;;;17.01;75.15;102270.81;5049539;28;20056;-73
2021/06/15 03:04:20;;;;;;;13.65;6.90;;;;;;;16.98;75.19;102271.78;5060337;28;20165;-72
2021/06/15 03:06:48;;;;;;;15.88;7.47;;;;;;;16.94;75.21;102278.25;5067912;28;20791;-74
2021/06/15 03:09:16;;;;;;;15.23;7.47;;;;;;;16.94;74.97;102288.13;5055638;28;20167;-72
2021/06/15 03:11:49;;;;;;;14.52;6.90;;;;;;;16.90;75.24;102292.75;5052019;28;20056;-73
2021/06/15 03:14:21;;;;;;;16.83;7.82;;;;;;;16.90;75.12;102294.56;5056963;28;20076;-75
2021/06/15 03:16:56;;;;;;;10.25;5.93;;;;;;;16.86;75.32;102295.63;5053006;28;20056;-73
2021/06/15 03:19:30;;;;;;;11.45;6.03;;;;;;;16.89;75.34;102299.09;5053048;28;20057;-74
2021/06/15 03:22:05;;;;;;;8.95;5.07;;;;;;;16.95;74.92;102301.56;5054236;28;20482;-73
2021/06/15 03:24:36;;;;;;;14.02;5.95;;;;;;;16.86;74.69;102312.69;5052356;28;20056;-74
2021/06/15 03:27:07;;;;;;;11.68;5.90;;;;;;;16.75;74.80;102310.34;5055683;28;20063;-74
2021/06/15 03:29:38;;;;;;;12.90;6.15;;;;;;;16.77;74.38;102300.38;5051414;28;20044;-70
2021/06/15 03:32:10;;;;;;;10.23;5.05;;;;;;;16.81;74.30;102295.75;5054393;28;20106;-72
2021/06/15 03:34:43;;;;;;;11.80;5.07;;;;;;;16.78;74.22;102293.16;5057128;28;20060;-72
2021/06/15 03:37:16;;;;;;;10.50;5.22;;;;;;;16.80;73.87;102305.66;5051996;28;20143;-73
2021/06/15 03:39:46;;;;;;;12.50;5.18;;;;;;;16.79;73.58;102303.88;5050354;28;20486;-73
2021/06/15 03:42:20;;;;;;;12.18;5.07;;;;;;;16.83;73.52;102298.41;5052114;28;20059;-73
2021/06/15 03:44:51;;;;;;;11.05;5.50;;;;;;;16.76;73.83;102295.03;5055674;28;20060;-73
2021/06/15 03:47:23;;;;;;;13.93;5.82;;;;;;;16.71;74.16;102297.00;5054146;28;20079;-74
2021/06/15 03:49:54;;;;;;;11.32;5.32;;;;;;;16.68;73.80;102294.41;5050571;28;20064;-73
2021/06/15 03:52:23;;;;;;;13.60;5.40;;;;;;;16.71;73.80;102302.41;5051367;28;20123;-71
2021/06/15 03:54:55;;;;;;;9.85;5.47;;;;;;;16.70;73.80;102308.72;5055653;28;20702;-71
2021/06/15 03:57:23;;;;;;;9.95;5.45;;;;;;;16.71;73.56;102313.19;5054948;28;20073;-72
2021/06/15 03:59:53;;;;;;;10.65;4.80;;;;;;;16.74;73.37;102313.94;5055689;28;20064;-72
2021/06/15 04:02:25;;;;;;;10.68;4.80;;;;;;;16.72;72.99;102315.81;5052167;28;20076;-72
2021/06/15 04:04:55;;;;;;;10.50;4.97;;;;;;;16.65;72.91;102326.84;5054711;28;20052;-72
2021/06/15 04:07:25;;;;;;;11.98;4.68;;;;;;;16.64;72.70;102333.19;5052078;28;20080;-72
2021/06/15 04:09:53;;;;;;;10.00;4.45;;;;;;;16.62;72.92;102336.81;5051772;28;20609;-74
2021/06/15 04:12:25;;;;;;;13.38;4.82;;;;;;;16.65;72.86;102332.25;5052632;28;20879;-72
2021/06/15 04:14:54;;;;;;;12.70;4.97;;;;;;;16.68;72.82;102333.00;5054879;28;20152;-73
2021/06/15 04:17:27;;;;;;;8.43;4.40;;;;;;;16.70;71.93;102331.19;5053118;28;20169;-73
2021/06/15 04:19:57;;;;;;;12.38;4.32;;;;;;;16.68;72.07;102326.75;5053955;28;20045;-74
2021/06/15 04:22:34;;;;;;;10.65;3.70;;;;;;;16.66;71.80;102332.19;5057642;28;20065;-73
2021/06/15 04:25:05;;;;;;;11.80;3.95;;;;;;;16.72;71.90;102323.91;5057335;28;20063;-73
2021/06/15 04:27:34;;;;;;;8.50;3.88;;;;;;;16.70;71.52;102332.97;5052554;28;21320;-74
2021/06/15 04:30:04;;;;;;;8.70;4.05;;;;;;;16.61;71.32;102329.66;5053655;28;20059;-73
2021/06/15 04:32:42;;;;;;;8.90;3.88;;;;;;;16.66;71.17;102326.81;5055219;28;20083;-74
2021/06/15 04:35:11;;;;;;;7.97;3.88;;;;;;;16.68;71.35;102324.06;5070686;28;20098;-74
2021/06/15 04:37:40;;;;;;;12.43;3.70;;;;;;;16.68;71.58;102330.31;5050744;28;20060;-74
2021/06/15 04:40:14;;;;;;;7.80;3.85;;;;;;;16.66;71.25;102326.81;5054739;28;20274;-74
2021/06/15 04:42:47;;;;;;;10.23;3.97;;;;;;;16.68;71.47;102329.44;5053825;28;21042;-72
2021/06/15 04:45:15;;;;;;;10.93;3.77;;;;;;;16.70;71.04;102331.19;5054816;28;20064;-72
2021/06/15 04:47:52;;;;;;;9.07;3.45;;;;;;;16.72;71.04;102332.00;5051138;28;20293;-71
2021/06/15 04:50:26;;;;;;;7.72;3.65;;;;;;;16.77;71.14;102332.72;5053586;28;20167;-72
2021/06/15 04:52:56;;;;;;;8.93;3.65;;;;;;;16.79;70.78;102344.31;5052082;28;20060;-72
2021/06/15 04:55:28;;;;;;;8.35;3.60;;;;;;;16.84;70.93;102345.97;5056729;28;20056;-73
2021/06/15 04:57:57;;;;;;;8.25;3.60;;;;;;;16.86;70.39;102352.25;5050281;28;20065;-73
2021/06/15 05:00:27;;;;;;;7.28;3.20;;;;;;;16.85;70.88;102355.84;5051819;28;20071;-72
2021/06/15 05:02:58;;;;;;;10.82;3.78;;;;;;;16.93;70.55;102359.19;5049771;28;20061;-72
2021/06/15 05:05:27;;;;;;;9.73;3.53;;;;;;;16.88;70.45;102355.75;5054238;28;20060;-73
2021/06/15 05:07:57;;;;;;;8.82;3.42;;;;;;;16.92;70.60;102355.56;5049213;28;20049;-73
2021/06/15 05:10:26;;;;;;;10.13;3.15;;;;;;;16.94;70.42;102350.13;5071214;28;20052;-72
2021/06/15 05:12:55;;;;;;;11.27;3.95;;;;;;;16.99;70.71;102346.38;5049064;28;20061;-71
2021/06/15 05:15:26;;;;;;;8.98;3.22;;;;;;;17.04;70.26;102356.97;5051423;28;20057;-73
2021/06/15 05:17:57;;;;;;;9.15;3.40;;;;;;;17.01;70.47;102351.72;5050169;28;20052;-72
2021/06/15 05:20:26;;;;;;;9.20;3.42;;;;;;;17.02;70.21;102352.56;5056314;28;20596;-72
2021/06/15 05:23:01;;;;;;;8.63;3.45;;;;;;;17.08;70.02;102355.06;5052672;28;20057;-72
2021/06/15 05:25:30;;;;;;;8.93;3.40;;;;;;;17.10;69.60;102354.06;5055254;28;20094;-71
2021/06/15 05:27:59;;;;;;;8.68;3.22;;;;;;;17.18;69.65;102349.28;5053597;28;20146;-75
2021/06/15 05:30:28;;;;;;;11.52;3.47;;;;;;;17.26;69.38;102359.78;5055709;28;20093;-74
2021/06/15 05:32:57;;;;;;;8.63;3.25;;;;;;;17.33;69.42;102357.75;5053483;28;20061;-74
2021/06/15 05:35:25;;;;;;;9.23;2.65;;;;;;;17.32;68.79;102366.78;5054570;28;20048;-74
2021/06/15 05:37:53;;;;;;;8.13;3.30;;;;;;;17.39;69.17;102360.22;5054527;28;20721;-74
2021/06/15 05:40:21;;;;;;;7.93;2.60;;;;;;;17.53;68.51;102370.50;5053025;28;20064;-74
2021/06/15 05:42:49;;;;;;;6.85;2.70;;;;;;;17.57;68.31;102382.06;5053808;28;20509;-74
2021/06/15 05:45:17;;;;;;;9.07;2.83;;;;;;;17.48;68.12;102372.50;5050327;28;20052;-74
2021/06/15 05:47:46;;;;;;;6.53;2.70;;;;;;;17.59;68.38;102377.47;5055288;28;20065;-74
2021/06/15 05:50:16;;;;;;;10.05;2.72;;;;;;;17.66;68.37;102379.91;5048998;28;20474;-74
2021/06/15 05:52:45;;;;;;;7.35;2.42;;;;;;;17.66;67.68;102369.13;5054251;28;20052;-74
2021/06/15 05:55:13;;;;;;;10.98;2.85;;;;;;;17.67;67.87;102370.88;5050483;28;20060;-72
2021/06/15 05:57:42;;;;;;;11.68;2.63;;;;;;;17.63;68.32;102373.75;5058395;28;20060;-72
2021/06/15 06:00:15;;;;;;;6.03;2.30;;;;;;;17.66;67.51;102376.34;5051857;28;20088;-73
2021/06/15 06:02:43;;;;;;;8.88;2.50;;;;;;;17.59;67.77;102383.78;5056343;28;20141;-73
2021/06/15 06:08:07;;;;;;;7.15;2.42;;;;;;;17.70;67.67;102386.06;5059658;28;20060;-73
2021/06/15 06:10:37;;;;;;;6.13;2.53;;;;;;;17.59;67.67;102391.88;5048548;28;20167;-73
2021/06/15 06:13:07;;;;;;;3.65;2.00;;;;;;;17.64;67.44;102392.59;5048983;28;20065;-74
2021/06/15 06:15:35;;;;;;;5.65;2.25;;;;;;;17.71;67.21;102404.03;5047232;28;20143;-74
2021/06/15 06:18:07;;;;;;;6.10;2.22;;;;;;;17.81;67.38;102409.94;5053339;28;20060;-72
2021/06/15 06:20:36;;;;;;;5.57;2.55;;;;;;;18.00;66.80;102410.19;5048713;28;20064;-72
2021/06/15 06:23:06;;;;;;;10.75;2.60;;;;;;;18.13;66.79;102424.97;5059026;28;20064;-72
2021/06/15 06:25:35;;;;;;;9.95;2.85;;;;;;;18.14;65.67;102426.72;5054034;28;20057;-72
2021/06/15 06:28:04;;;;;;;8.48;2.50;;;;;;;18.12;65.62;102431.31;5059390;28;20506;-72
2021/06/15 06:30:32;;;;;;;7.40;2.33;;;;;;;18.13;66.05;102433.06;5053657;28;20076;-71
2021/06/15 06:33:00;;;;;;;5.78;2.28;;;;;;;18.24;65.65;102425.44;5059010;28;20459;-71
2021/06/15 06:35:29;;;;;;;10.43;2.92;;;;;;;18.22;65.89;102431.84;5052359;28;20056;-72
2021/06/15 06:37:57;;;;;;;10.13;3.22;;;;;;;18.38;65.77;102432.13;5062717;28;20056;-71
2021/06/15 06:40:27;;;;;;;6.50;2.50;;;;;;;18.49;65.10;102427.16;5052656;28;20622;-73
2021/06/15 06:42:54;;;;;;;10.85;2.90;;;;;;;18.20;65.12;102433.72;5055838;28;20088;-72
2021/06/15 06:45:22;;;;;;;8.20;2.72;;;;;;;18.38;64.63;102434.81;5055792;28;20061;-74
2021/06/15 06:47:50;;;;;;;9.20;2.60;;;;;;;18.37;64.86;102433.03;5053290;28;20061;-72
2021/06/15 06:50:18;;;;;;;7.53;2.55;;;;;;;18.67;64.42;102437.22;5055672;28;20057;-74
2021/06/15 06:52:46;;;;;;;6.60;2.30;;;;;;;19.04;61.83;102438.41;5054254;28;20053;-73
2021/06/15 06:55:19;;;;;;;9.95;2.78;;;;;;;18.84;62.49;102430.28;5055789;28;20065;-72
2021/06/15 06:57:48;;;;;;;11.90;2.92;;;;;;;18.89;62.75;102427.38;5053991;28;20337;-74
2021/06/15 07:00:17;;;;;;;6.13;2.38;;;;;;;18.81;63.19;102442.06;5056633;28;20138;-72
2021/06/15 07:02:48;;;;;;;7.53;2.53;;;;;;;18.96;62.90;102431.56;5050768;28;20138;-73
2021/06/15 07:05:16;;;;;;;5.30;2.35;;;;;;;19.13;62.52;102429.03;5055625;28;20079;-73
2021/06/15 07:07:43;;;;;;;7.38;2.25;;;;;;;19.16;62.17;102433.44;5053278;28;20084;-73
2021/06/15 07:10:13;;;;;;;7.72;2.40;;;;;;;19.20;61.86;102435.06;5054950;28;20145;-73
2021/06/15 07:12:44;;;;;;;11.88;2.25;;;;;;;19.50;60.90;102438.25;5050548;28;20147;-70
2021/06/15 07:15:14;;;;;;;9.80;2.55;;;;;;;19.76;60.25;102428.97;5060635;28;20064;-71
2021/06/15 07:17:42;;;;;;;8.30;2.72;;;;;;;19.76;60.77;102428.09;5049420;28;20069;-71
2021/06/15 07:20:11;;;;;;;7.40;2.42;;;;;;;19.92;60.08;102425.56;5054512;28;20071;-71
2021/06/15 07:22:39;;;;;;;6.93;2.42;;;;;;;20.23;58.81;102422.28;5050049;28;20064;-71
2021/06/15 07:25:08;;;;;;;6.70;2.25;;;;;;;20.34;58.74;102427.19;5052636;28;20273;-72
2021/06/15 07:27:36;;;;;;;7.22;2.70;;;;;;;20.82;56.56;102428.50;5049564;28;20059;-72
2021/06/15 07:30:06;;;;;;;9.40;2.65;;;;;;;20.82;56.65;102430.31;5054966;28;20060;-73
2021/06/15 07:32:36;;;;;;;7.85;2.35;;;;;;;21.22;55.42;102428.28;5051938;28;20057;-72
2021/06/15 07:35:04;;;;;;;10.38;2.53;;;;;;;21.48;54.02;102437.78;5056225;28;20497;-72
2021/06/15 07:37:32;;;;;;;6.07;2.38;;;;;;;21.30;53.80;102436.00;5057864;28;20060;-71
2021/06/15 07:40:00;;;;;;;8.65;2.67;;;;;;;21.45;54.49;102432.47;5059289;28;20060;-73
2021/06/15 07:42:29;;;;;;;6.85;2.50;;;;;;;22.09;53.40;102436.28;5052550;28;20072;-69
2021/06/15 07:44:57;;;;;;;7.60;2.42;;;;;;;22.31;51.21;102422.41;5050282;28;20359;-70
2021/06/15 07:47:25;;;;;;;8.93;2.40;;;;;;;22.60;51.44;102425.28;5051648;28;20072;-70
2021/06/15 07:50:13;;;;;;;8.23;2.50;;;;;;;22.83;49.98;102431.22;5051808;28;20064;-71
2021/06/15 07:52:42;;;;;;;6.07;2.30;;;;;;;22.63;50.08;102432.38;5052297;28;20129;-71
2021/06/15 07:55:13;;;;;;;4.38;2.10;;;;;;;22.38;50.33;102425.66;5051443;28;20065;-71
2021/06/15 07:57:41;;;;;;;7.63;2.85;;;;;;;22.26;50.73;102421.75;5052367;28;20425;-71
2021/06/15 08:00:11;;;;;;;6.63;2.80;;;;;;;22.10;50.65;102427.19;5053181;28;20059;-71
2021/06/15 08:02:39;;;;;;;6.35;2.05;;;;;;;21.91;50.52;102421.00;5051916;28;20471;-72
2021/06/15 08:05:08;;;;;;;11.57;2.55;;;;;;;22.17;50.29;102422.28;5052034;28;20064;-72
2021/06/15 08:07:37;;;;;;;8.88;2.40;;;;;;;22.72;48.36;102426.41;5049931;28;20052;-71
2021/06/15 08:10:06;;;;;;;10.75;2.63;;;;;;;22.20;49.29;102427.53;5047605;28;20064;-72
2021/06/15 08:12:34;;;;;;;6.93;2.67;;;;;;;21.80;50.07;102417.03;5049088;28;20704;-71
2021/06/15 08:15:02;;;;;;;6.03;2.17;;;;;;;22.35;49.45;102421.25;5051051;28;20605;-71
2021/06/15 08:17:30;;;;;;;8.65;2.72;;;;;;;;;;5049405;28;20068;-71
2021/06/15 08:19:58;;;;;;;6.35;2.47;;;;;;;23.11;47.63;102414.16;5048353;28;20152;-71
2021/06/15 08:22:26;;;;;;;7.38;2.53;;;;;;;23.21;47.05;102417.22;5053732;28;20333;-71
2021/06/15 08:24:55;;;;;;;7.70;2.35;;;;;;;23.56;45.92;102406.84;5053506;28;20056;-71
2021/06/15 08:27:23;;;;;;;8.23;2.80;;;;;;;24.11;45.66;102398.88;5052393;28;20066;-71
2021/06/15 08:29:51;;;;;;;6.40;2.20;;;;;;;23.68;46.18;102406.09;5050146;28;20061;-70
2021/06/15 08:32:19;;;;;;;5.03;2.30;;;;;;;23.63;45.83;102420.97;5052778;28;20182;-72
2021/06/15 08:34:47;;;;;;;5.90;2.55;;;;;;;23.28;46.52;102413.16;5050355;28;20080;-72
2021/06/15 08:37:15;;;;;;;7.80;2.50;;;;;;;22.54;47.68;102412.94;5051263;28;20048;-71
2021/06/15 08:39:43;;;;;;;7.38;2.58;;;;;;;23.44;46.61;102402.16;5051556;28;20117;-71
2021/06/15 08:42:15;;;;;;;5.93;2.65;;;;;;;23.98;46.36;102398.81;5047772;28;20163;-72
2021/06/15 08:44:43;;;;;;;8.23;3.10;;;;;;;24.00;45.31;102400.44;5050476;28;20416;-72
2021/06/15 08:47:15;;;;;;;6.10;2.53;;;;;;;24.14;44.80;102394.09;5049740;28;20173;-71
2021/06/15 08:49:43;;;;;;;7.55;2.60;;;;;;;24.15;45.62;102393.13;5053715;28;20394;-71
2021/06/15 08:52:11;;;;;;;6.30;2.97;;;;;;;24.19;45.22;102400.13;5052008;28;20073;-71
2021/06/15 08:54:40;;;;;;;7.70;2.70;;;;;;;23.39;46.47;102402.44;5051227;28;20067;-70
2021/06/15 08:57:08;;;;;;;9.23;3.70;;;;;;;23.84;45.84;102394.25;5049024;28;20494;-71
2021/06/15 08:59:38;;;;;;;8.20;3.20;;;;;;;23.46;46.12;102400.22;5052929;28;20167;-70
2021/06/15 09:02:07;;;;;;;9.10;3.38;;;;;;;23.29;47.56;102409.44;5050802;28;20068;-70
2021/06/15 09:04:36;;;;;;;9.45;3.17;;;;;;;22.75;47.88;102399.03;5055364;28;20056;-70
2021/06/15 09:07:05;;;;;;;7.53;3.60;;;;;;;22.88;47.00;102401.88;5051531;28;20068;-70
2021/06/15 09:09:40;;;;;;;8.65;3.20;;;;;;;23.06;47.47;102402.69;5051103;28;20067;-71
2021/06/15 09:12:10;;;;;;;8.43;3.35;;;;;;;23.37;47.39;102403.53;5052215;28;20126;-79
2021/06/15 09:14:43;;;;;;;10.52;3.72;;;;;;;23.75;46.34;102392.06;5054937;28;20137;-73
2021/06/15 09:17:13;;;;;;;6.47;3.05;;;;;;;23.52;46.88;102404.44;5075241;28;20131;-72
2021/06/15 09:19:43;;;;;;;9.45;3.33;;;;;;;23.63;46.75;102394.63;5051364;28;22583;-70
2021/06/15 09:22:25;;;;;;;9.55;3.22;;;;;;;23.22;46.88;102402.63;5052614;28;20060;-71
2021/06/15 09:24:54;;;;;;;8.55;3.30;;;;;;;23.24;46.81;102406.13;5051643;28;20110;-70
2021/06/15 09:27:29;;;;;;;13.18;4.25;;;;;;;23.49;45.32;102402.75;5054432;28;20065;-71
2021/06/15 09:30:00;;;;;;;11.18;4.50;;;;;;;24.07;44.27;102400.94;5050421;28;20061;-70
2021/06/15 09:32:35;;;;;;;7.20;3.50;;;;;;;25.40;43.39;102389.31;5053246;28;20116;-71
2021/06/15 09:35:06;;;;;;;11.20;3.70;;;;;;;24.80;41.91;102397.91;5050372;28;20099;-72
2021/06/15 09:37:37;;;;;;;9.48;4.07;;;;;;;23.56;45.57;102393.22;5052005;28;20056;-72
2021/06/15 09:40:12;;;;;;;12.07;4.18;;;;;;;23.63;45.11;102391.88;5050328;28;20057;-73
2021/06/15 09:43:07;;;;;;;12.43;4.85;;;;;;;23.95;45.49;102394.41;5052786;28;20064;-72
2021/06/15 09:45:41;;;;;;;11.45;4.30;;;;;;;23.72;47.13;102393.16;5042799;28;20277;-72
2021/06/15 09:48:24;;;;;;;8.68;3.70;;;;;;;25.06;42.36;102389.78;5050799;28;20067;-73
2021/06/15 09:50:54;;;;;;;14.00;4.57;;;;;;;25.04;42.96;102386.28;5054235;28;20064;-72
2021/06/15 09:53:24;;;;;;;14.75;4.00;;;;;;;25.50;41.47;102388.56;5053559;28;20048;-72
2021/06/15 09:55:53;;;;;;;13.13;4.35;;;;;;;26.31;39.95;102388.25;5051239;28;20071;-72
2021/06/15 09:58:43;;;;;;;9.52;3.95;;;;;;;26.23;40.41;102386.06;5053479;28;20056;-72
2021/06/15 10:01:32;;;;;;;9.40;4.10;;;;;;;25.75;40.49;102388.69;5050661;28;20274;-72
2021/06/15 10:04:12;;;;;;;11.25;4.35;;;;;;;26.61;40.25;102399.63;5036804;28;20072;-71
2021/06/15 10:06:42;;;;;;;11.25;4.25;;;;;;;25.87;41.06;102385.03;5040185;28;20332;-71
2021/06/15 10:09:10;;;;;;;12.18;4.15;;;;;;;25.54;41.19;102391.97;5038516;28;20057;-72
2021/06/15 10:11:39;;;;;;;11.30;4.30;;;;;;;24.35;43.76;102396.41;5037651;28;20049;-72
2021/06/15 10:14:07;;;;;;;10.77;3.88;;;;;;;25.30;42.86;102394.56;5040723;28;20055;-72
2021/06/15 10:16:36;;;;;;;10.32;4.10;;;;;;;25.94;41.30;102390.94;5039174;28;20059;-72
2021/06/15 10:19:05;;;;;;;9.15;4.05;;;;;;;26.40;40.05;102384.81;5042970;28;20077;-73
2021/06/15 10:21:34;;;;;;;10.30;4.70;;;;;;;24.89;40.98;102387.34;5040124;28;20064;-72
2021/06/15 10:24:04;;;;;;;10.70;4.03;;;;;;;25.58;41.13;102379.81;5038481;28;20057;-70
2021/06/15 10:26:32;;;;;;;12.65;4.63;;;;;;;26.10;41.49;102372.44;5039172;28;20052;-70
2021/06/15 10:29:00;;;;;;;8.80;4.50;;;;;;;25.97;40.03;102377.09;5040662;28;20056;-70
2021/06/15 10:31:30;;;;;;;8.93;4.32;;;;;;;25.27;42.69;102378.41;5038593;28;20076;-74
2021/06/15 10:34:00;;;;;;;10.23;4.70;;;;;;;24.30;42.73;102379.47;5041442;28;20059;-70
2021/06/15 10:36:39;;;;;;;8.85;3.85;;;;;;;24.09;43.66;102382.63;5034923;28;20045;-71
2021/06/15 10:39:09;;;;;;;12.43;4.40;;;;;;;25.31;40.83;102377.19;5040711;28;21292;-71
2021/06/15 10:41:37;;;;;;;12.07;4.95;;;;;;;25.35;40.62;102368.69;5040288;28;20068;-70
2021/06/15 10:44:09;;;;;;;10.82;4.45;;;;;;;25.88;41.13;102373.09;5041898;28;20604;-70
2021/06/15 10:46:39;;;;;;;10.35;5.20;;;;;;;25.24;41.55;102370.41;5042278;28;20796;-71
2021/06/15 10:49:12;;;;;;;13.60;4.28;;;;;;;25.58;40.53;102376.22;5041926;28;20127;-70
2021/06/15 10:51:58;;;;;;;11.88;4.82;;;;;;;24.79;41.93;102382.53;5035696;28;20065;-70
2021/06/15 10:54:32;;;;;;;12.32;4.72;;;;;;;25.42;41.48;102373.69;5043551;28;20064;-71
2021/06/15 10:57:22;;;;;;;9.48;5.43;;;;;;;25.80;40.56;102365.47;5045802;28;20060;-71
2021/06/15 11:00:07;;;;;;;10.48;5.72;;;;;;;25.99;39.21;102362.28;5050602;28;20055;-72
2021/06/15 11:02:35;;;;;;;10.98;4.80;;;;;;;26.51;39.31;102368.47;5047408;28;20064;-71
2021/06/15 11:05:38;;;;;;;10.20;5.10;;;;;;;26.27;38.52;102368.44;5050435;28;20061;-70
2021/06/15 11:08:17;;;;;;;12.63;5.43;;;;;;;26.13;38.96;102361.25;5051773;28;20064;-70
2021/06/15 11:10:51;;;;;;;14.98;5.10;;;;;;;25.65;38.60;102347.47;5052426;28;20115;-73
2021/06/15 11:13:20;;;;;;;8.73;4.10;;;;;;;27.11;38.31;102346.56;5048909;28;20124;-71
2021/06/15 11:15:58;;;;;;;10.40;5.18;;;;;;;25.46;39.18;102356.97;5053942;28;20060;-70
2021/06/15 11:18:26;;;;;;;10.20;5.72;;;;;;;25.49;40.51;102347.72;5051106;28;20514;-70
2021/06/15 11:20:55;;;;;;;8.15;4.93;;;;;;;26.25;39.13;102343.06;5056879;28;20065;-70
2021/06/15 11:23:29;;;;;;;12.20;5.50;;;;;;;26.23;38.65;102351.38;5053798;28;20067;-70
2021/06/15 11:26:01;;;;;;;12.05;5.03;;;;;;;26.45;39.17;102352.50;5053471;28;20060;-71
2021/06/15 11:28:40;;;;;;;11.63;4.90;;;;;;;27.03;37.34;102347.16;5056247;28;20362;-71
2021/06/15 11:31:30;;;;;;;13.13;5.38;;;;;;;27.01;36.99;102344.53;5053790;28;20123;-71
2021/06/15 11:34:19;;;;;;;10.73;5.15;;;;;;;26.74;37.28;102344.81;5056332;28;20068;-75
2021/06/15 11:36:58;;;;;;;9.75;4.75;;;;;;;27.21;37.98;102344.84;5054012;28;20052;-75
2021/06/15 11:39:34;;;;;;;11.30;5.20;;;;;;;26.74;38.38;102350.28;5055666;28;20049;-75